Latest Weather Observations for Warruwi

IDD60801

Issued at 12:05 pm CST Friday 18 April 2014 (issued every 30 minutes, with the page automatically refreshed every 10 minutes)

About weather observations | Map of weather stations | Latest weather observations for NT | Other Formats
Station Details ID: 014401 Name: WARRUWI AIRPORT Lat: -11.65 Lon: 133.38 Height: 19.2 m
Data from the previous 72 hours. | See also: Recent months at Warruwi
Date/Time
CST
Temp
°C
App
Temp
°C
Dew
Point
Rel
Hum
%
Delta-T
°C
Wind Press
QNH
hPa
Press
MSL
hPa
Rain
since 9 am
mm
Dir
 
Spd
km/h
Gust
km/h
Spd
kts
Gust
kts
18/12:00pm 28.6 30.4 23.5 74 3.5 E 20 28 11 15 1011.5 1011.3 0.0
18/11:30am 28.7 30.8 23.1 71 3.8 E 17 22 9 12 1011.7 1011.5 0.0
18/11:00am 28.8 31.1 22.8 70 4.1 E 15 20 8 11 1012.3 - 0.0
18/10:30am 28.7 31.5 23.6 74 3.5 ESE 15 20 8 11 1012.0 1011.8 0.0
18/10:00am 28.0 30.7 23.4 76 3.2 SE 15 19 8 10 1012.0 - 0.0
18/09:30am 27.3 29.7 22.9 77 3.0 SE 15 20 8 11 1011.9 1011.7 0.0
18/09:00am 27.3 29.0 23.1 78 2.9 ESE 19 28 10 15 1011.7 1011.5 0.0
18/08:30am 27.3 29.4 23.1 78 2.9 SE 17 26 9 14 1011.7 1011.5 0.0
18/08:00am 27.0 29.0 23.0 79 2.7 ESE 17 24 9 13 1011.5 - 0.0
18/07:30am 26.8 28.9 23.1 80 2.5 ESE 17 24 9 13 1011.1 1010.9 0.0
18/07:00am 26.7 29.1 23.0 80 2.5 SE 15 20 8 11 1010.9 - 0.0
18/06:30am 26.6 29.6 22.7 79 2.6 SE 11 19 6 10 1010.5 1010.3 0.0
18/06:00am 26.6 28.9 22.7 79 2.6 SE 15 20 8 11 1010.3 1010.1 0.0
18/05:30am 26.5 28.9 23.0 81 2.4 SE 15 22 8 12 1009.9 1009.7 0.0
18/05:00am 26.5 28.9 23.0 81 2.4 SE 15 20 8 11 1010.0 - 0.0
18/04:30am 26.5 28.7 23.2 82 2.3 SE 17 26 9 14 1009.8 1009.6 0.0
18/04:00am 26.5 28.7 23.2 82 2.2 SE 17 24 9 13 1010.0 - 0.0
18/03:30am 26.6 29.2 23.3 82 2.3 SSE 15 24 8 13 1010.0 1009.8 0.0
18/03:00am 26.6 29.6 23.3 82 2.3 SE 13 22 7 12 1010.2 1010.0 0.0
18/02:30am 26.7 30.0 23.2 81 2.4 SE 11 19 6 10 1010.5 1010.3 0.0
18/02:00am 26.7 29.7 23.4 82 2.3 SE 13 22 7 12 1010.7 - 0.0
18/01:30am 26.8 29.3 23.1 80 2.5 SE 15 20 8 11 1010.9 1010.7 0.0
18/01:00am 26.9 30.6 23.2 80 2.5 SSE 9 17 5 9 1011.4 - 0.0
18/12:30am 27.0 29.8 23.0 79 2.7 SSE 13 20 7 11 1011.7 1011.5 0.0
18/12:00am 27.1 30.0 23.1 79 2.7 SE 13 22 7 12 1012.1 1011.9 0.0
 
Date/Time
CST
Temp
°C
App
Temp
°C
Dew
Point
Rel
Hum
%
Delta-T
°C
Wind Press
QNH
hPa
Press
MSL
hPa
Rain
since 9 am
mm
Dir
 
Spd
km/h
Gust
km/h
Spd
kts
Gust
kts
17/11:30pm 27.1 29.9 23.6 81 2.4 SE 15 22 8 12 1012.1 1011.9 0.0
17/11:00pm 27.0 29.6 23.3 80 2.5 SE 15 20 8 11 1012.0 - 0.0
17/10:30pm 27.2 29.5 22.8 77 3.0 SE 15 20 8 11 1011.9 1011.7 0.0
17/10:00pm 27.6 31.8 23.4 78 2.9 SSE 7 13 4 7 1011.6 - 0.0
17/09:30pm 27.9 31.7 23.5 77 3.0 SSE 9 15 5 8 1011.2 1011.0 0.0
17/09:00pm 28.3 31.0 23.4 75 3.4 SE 15 19 8 10 1011.3 1011.1 0.0
17/08:30pm 29.0 32.4 22.7 69 4.3 ESE 9 15 5 8 1011.1 1010.9 0.0
17/08:00pm 28.7 32.7 22.7 70 4.1 SE 6 7 3 4 1010.8 - 0.0
17/07:30pm 28.6 32.7 22.3 68 4.3 ENE 4 7 2 4 1010.2 1010.0 0.0
17/07:00pm 28.5 32.6 22.3 69 4.2 ENE 4 6 2 3 1009.8 - 0.0
17/06:30pm 29.0 33.1 22.2 66 4.6 NE 4 6 2 3 1009.7 1009.5 0.0
17/06:00pm 29.5 32.8 21.4 61 5.4 NE 6 11 3 6 1009.2 1009.0 0.0
17/05:30pm 30.1 32.8 20.6 56 6.3 NE 7 11 4 6 1009.1 1008.9 0.0
17/05:00pm 31.0 34.4 20.9 55 6.7 NE 4 7 2 4 1008.8 - 0.0
17/04:30pm 31.7 34.7 20.9 52 7.2 NE 6 9 3 5 1008.8 1008.6 0.0
17/04:00pm 31.5 33.9 20.1 50 7.5 NE 7 11 4 6 1008.4 - 0.0
17/03:30pm 31.7 33.2 19.0 47 8.3 ENE 9 15 5 8 1008.4 1008.2 0.0
17/03:00pm 32.4 34.1 21.0 51 7.7 E 13 17 7 9 1008.8 1008.6 0.0
17/02:30pm 32.2 34.0 19.5 47 8.4 ENE 9 17 5 9 1009.1 1008.9 0.0
17/02:00pm 31.8 33.8 20.7 51 7.4 E 11 17 6 9 1009.4 - 0.0
17/01:30pm 31.9 34.7 22.3 56 6.6 E 11 17 6 9 1009.6 1009.4 0.0
17/01:00pm 31.5 34.3 20.8 53 7.1 E 7 15 4 8 1009.9 - 0.0
17/12:30pm 31.1 35.4 23.7 64 5.1 E 7 13 4 7 1010.2 1010.0 0.0
17/12:00pm 31.0 34.8 23.4 64 5.3 E 9 15 5 8 1010.9 1010.7 0.0
17/11:30am 31.1 34.5 24.0 66 4.9 ESE 13 19 7 10 1011.3 1011.1 0.0
17/11:00am 30.4 33.4 23.3 66 4.9 ESE 13 19 7 10 1011.6 - 0.0
17/10:30am 30.4 33.2 23.6 67 4.7 ESE 15 22 8 12 1011.9 1011.7 0.0
17/10:00am 29.9 31.9 22.9 66 4.8 SE 17 22 9 12 1012.2 - 0.0
17/09:30am 29.8 32.5 23.5 69 4.3 SE 15 20 8 11 1012.0 1011.8 0.0
17/09:00am 29.3 32.0 23.5 71 4.0 SE 15 22 8 12 1011.8 1011.6 0.0
17/08:30am 29.1 31.6 23.8 73 3.7 SE 17 20 9 11 1011.5 1011.3 0.0
17/08:00am 28.8 33.4 24.8 79 2.8 SE 9 13 5 7 1011.4 - 0.0
17/07:30am 27.6 32.9 25.0 86 1.8 SSE 6 7 3 4 1011.0 1010.8 0.0
17/07:00am 26.6 32.2 24.8 90 1.3 SSE 4 7 2 4 1010.8 - 0.0
17/06:30am 26.1 31.4 24.3 90 1.2 S 4 4 2 2 1010.4 1010.2 0.0
17/06:00am 26.6 31.8 24.8 90 1.3 SSE 6 7 3 4 1010.1 1009.9 0.0
17/05:30am 26.4 31.7 24.4 89 1.4 S 4 6 2 3 1009.8 1009.6 0.0
17/05:00am 26.7 32.4 24.4 87 1.6 S 2 4 1 2 1009.7 - 0.0
17/04:30am 27.2 32.6 24.5 85 1.9 SSE 4 7 2 4 1009.5 1009.3 0.0
17/04:00am 27.2 32.9 25.0 88 1.5 S 4 7 2 4 1009.4 - 0.0
17/03:30am 27.0 32.9 25.4 91 1.1 S 4 6 2 3 1009.4 1009.2 0.0
17/03:00am 26.6 32.3 25.0 91 1.1 S 4 6 2 3 1009.5 1009.3 0.0
17/02:30am 26.1 32.2 24.5 91 1.1 CALM 0 0 0 0 1009.7 1009.5 0.0
17/02:00am 26.0 32.1 24.4 91 1.1 CALM 0 0 0 0 1010.0 - 0.0
17/01:30am 26.3 32.6 24.7 91 1.1 CALM 0 0 0 0 1010.3 1010.1 0.0
17/01:00am 26.2 32.3 24.4 90 1.2 CALM 0 0 0 0 1010.6 - 0.0
17/12:30am 26.2 32.3 24.4 90 1.2 CALM 0 0 0 0 1010.8 1010.6 0.0
17/12:00am 26.3 32.4 24.5 90 1.2 CALM 0 2 0 1 1010.9 1010.7 0.0
 
Date/Time
CST
Temp
°C
App
Temp
°C
Dew
Point
Rel
Hum
%
Delta-T
°C
Wind Press
QNH
hPa
Press
MSL
hPa
Rain
since 9 am
mm
Dir
 
Spd
km/h
Gust
km/h
Spd
kts
Gust
kts
16/11:30pm 26.4 32.6 24.6 90 1.2 CALM 0 0 0 0 1011.0 1010.8 0.0
16/11:00pm 26.6 32.7 24.4 88 1.5 CALM 0 0 0 0 1010.8 - 0.0
16/10:30pm 26.7 32.7 24.2 86 1.7 CALM 0 0 0 0 1010.7 1010.5 0.0
16/10:00pm 26.6 32.5 24.1 86 1.7 CALM 0 0 0 0 1010.8 - 0.0
16/09:30pm 26.8 32.7 24.1 85 1.9 CALM 0 0 0 0 1010.7 1010.5 0.0
16/09:00pm 27.0 32.5 24.1 84 2.0 NNE 2 4 1 2 1010.3 1010.1 0.0
16/08:30pm 27.2 32.5 23.7 81 2.4 NE 2 4 1 2 1009.9 1009.7 0.0
16/08:00pm 27.5 32.5 23.9 81 2.5 NE 4 4 2 2 1009.7 - 0.0
16/07:30pm 27.7 32.9 23.5 78 2.9 NNE 2 4 1 2 1009.3 1009.1 0.0
16/07:00pm 28.3 33.8 23.4 75 3.4 CALM 0 0 0 0 1009.0 - 0.0
16/06:30pm 29.2 33.7 22.9 69 4.3 NE 4 6 2 3 1008.8 1008.6 0.0
16/06:00pm 30.1 34.3 22.5 63 5.2 NE 4 9 2 5 1008.7 1008.5 0.0
16/05:30pm 31.0 34.9 22.6 61 5.7 NNE 6 9 3 5 1008.2 1008.0 0.0
16/05:00pm 31.6 35.7 22.9 60 6.0 ENE 6 11 3 6 1008.0 - 0.0
16/04:30pm 32.0 36.6 24.1 63 5.5 N 7 11 4 6 1007.8 1007.6 0.0
16/04:00pm 31.4 36.0 24.8 68 4.6 N 9 15 5 8 1007.7 - 0.0
16/03:30pm 31.4 36.2 24.5 67 4.8 N 7 13 4 7 1008.0 1007.8 0.0
16/03:00pm 30.8 35.1 23.7 66 4.9 N 7 13 4 7 1008.2 1008.0 0.0
16/02:30pm 31.4 35.4 23.8 64 5.3 N 9 19 5 10 1008.5 1008.3 0.0
16/02:00pm 31.9 36.1 23.2 60 6.0 N 6 13 3 7 1008.7 - 0.0
16/01:30pm 32.8 37.5 24.3 61 6.0 WNW 7 11 4 6 1008.9 1008.7 0.0
16/01:00pm 31.0 34.9 23.6 64 5.1 W 9 15 5 8 1009.3 - 0.0
16/12:30pm 32.0 35.9 24.3 63 5.4 W 11 15 6 8 1009.7 1009.5 0.0
16/12:00pm 30.6 35.5 24.7 71 4.1 WNW 7 17 4 9 1010.2 1010.0 0.0
16/11:30am 31.0 35.5 23.6 64 5.1 W 6 11 3 6 1010.7 1010.5 0.0
16/11:00am 31.8 36.7 24.4 65 5.2 ENE 6 9 3 5 1011.0 - 0.0
16/10:30am 30.6 35.9 25.0 72 3.9 S 6 9 3 5 1011.5 1011.3 0.0
16/10:00am 30.1 35.2 24.7 73 3.8 SSE 6 9 3 5 1011.5 - 0.0
16/09:30am 29.3 34.7 25.1 78 3.0 S 6 9 3 5 1011.6 1011.4 0.0
16/09:00am 28.4 33.7 25.0 82 2.4 S 6 7 3 4 1011.6 1011.4 0.0
16/08:30am 27.7 32.7 24.5 83 2.2 SSW 6 7 3 4 1011.5 1011.3 0.0
16/08:00am 27.5 33.0 24.7 85 1.9 W 4 6 2 3 1011.4 - 0.0
16/07:30am 27.0 33.3 24.8 88 1.5 CALM 0 4 0 2 1011.1 1010.9 0.0
16/07:00am 26.5 32.2 23.8 85 1.9 CALM 0 2 0 1 1010.9 - 0.0
16/06:30am 26.7 31.5 24.2 86 1.7 S 6 9 3 5 1010.7 1010.5 0.0
16/06:00am 26.6 31.5 24.4 88 1.5 S 6 9 3 5 1010.5 1010.3 0.0
16/05:30am 26.5 31.5 24.5 89 1.4 S 6 7 3 4 1010.4 1010.2 0.0
16/05:00am 26.4 31.5 24.6 90 1.2 S 6 9 3 5 1010.3 - 0.0
16/04:30am 25.9 31.5 24.9 94 0.7 SSE 4 9 2 5 1010.1 1009.9 0.0
16/04:00am 25.5 31.6 24.5 94 0.7 CALM 0 0 0 0 1009.9 - 0.0
16/03:30am 25.6 31.7 24.4 93 0.8 CALM 0 0 0 0 1009.7 1009.5 0.0
16/03:00am 25.6 31.7 24.4 93 0.8 CALM 0 4 0 2 1009.7 1009.5 0.0
16/02:30am 25.7 31.7 24.3 92 1.0 CALM 0 0 0 0 1009.9 1009.7 0.0
16/02:00am 25.8 31.8 24.2 91 1.1 CALM 0 0 0 0 1010.1 - 0.0
16/01:30am 25.8 31.6 24.0 90 1.2 CALM 0 0 0 0 1010.3 1010.1 0.0
16/01:00am 25.9 31.7 23.9 89 1.4 CALM 0 0 0 0 1010.5 - 0.0
16/12:30am 26.1 31.7 24.3 90 1.2 NE 2 2 1 1 1010.8 1010.6 0.0
16/12:00am 26.2 32.2 24.2 89 1.4 CALM 0 2 0 1 1011.0 1010.8 0.0
 
Date/Time
CST
Temp
°C
App
Temp
°C
Dew
Point
Rel
Hum
%
Delta-T
°C
Wind Press
QNH
hPa
Press
MSL
hPa
Rain
since 9 am
mm
Dir
 
Spd
km/h
Gust
km/h
Spd
kts
Gust
kts
15/11:30pm 26.3 31.9 24.2 88 1.4 NNE 2 4 1 2 1010.9 1010.7 0.0
15/11:00pm 26.4 31.9 24.1 87 1.6 NNE 2 4 1 2 1011.0 - 0.0
15/10:30pm 26.8 32.4 24.3 86 1.7 NNE 2 4 1 2 1011.0 1010.8 0.0
15/10:00pm 27.2 32.8 24.3 84 2.0 NNE 2 4 1 2 1011.1 - 0.0
15/09:30pm 27.2 32.6 24.5 85 1.9 NE 4 7 2 4 1011.0 1010.8 0.0
15/09:00pm 27.6 33.6 24.2 82 2.4 CALM 0 2 0 1 1010.9 1010.7 0.0
15/08:30pm 27.9 33.2 24.3 81 2.5 NE 4 6 2 3 1010.6 1010.4 0.0
15/08:00pm 28.1 33.0 23.7 77 3.0 NNE 4 7 2 4 1010.3 - 0.0
15/07:30pm 28.5 32.9 23.4 74 3.5 NE 6 9 3 5 1009.9 1009.7 0.0
15/07:00pm 28.5 32.7 23.2 73 3.6 NE 6 9 3 5 1009.4 - 0.0
15/06:30pm 29.0 33.2 23.2 71 4.0 NE 6 11 3 6 1009.0 1008.8 0.0
15/06:00pm 29.6 32.8 22.3 65 5.0 ENE 9 15 5 8 1009.0 1008.8 0.0
15/05:30pm 29.9 33.0 22.1 63 5.3 ENE 9 17 5 9 1008.9 1008.7 0.0
15/05:00pm 31.1 33.7 21.9 58 6.2 ENE 11 17 6 9 1008.7 - 0.0
15/04:30pm 31.3 34.4 22.9 61 5.8 ENE 11 17 6 9 1008.6 1008.4 0.0
15/04:00pm 31.2 34.3 23.6 64 5.3 ENE 13 19 7 10 1008.5 - 0.0
15/03:30pm 32.1 33.9 21.9 54 6.9 E 15 20 8 11 1008.5 1008.3 0.0
15/03:00pm 31.6 34.9 22.6 59 6.2 ENE 9 17 5 9 1008.9 1008.7 0.0
15/02:30pm 30.8 33.9 22.1 59 5.9 ENE 9 15 5 8 1009.0 1008.8 0.0
15/02:00pm 31.2 34.1 22.5 60 5.9 E 11 19 6 10 1009.4 - 0.0
15/01:30pm 31.1 34.3 23.0 62 5.6 E 11 15 6 8 1009.9 1009.7 0.0
15/01:00pm 31.9 34.9 23.4 60 5.9 E 13 20 7 11 1010.2 - 0.0
15/12:30pm 31.2 32.5 21.7 57 6.4 ESE 17 22 9 12 1010.6 1010.4 0.0

Other Formats:

Comma delimited format used in spreadsheet applications
http://www.bom.gov.au/fwo/IDD60801/IDD60801.94139.axf

JavaScript Object Notation format (JSON) in row-major order
http://www.bom.gov.au/fwo/IDD60801/IDD60801.94139.json